createdAt,value
2017-06-02T00:00:04.909Z,87.05
2017-06-02T00:01:17.426Z,87.15
2017-06-02T00:02:30.213Z,87.15
2017-06-02T00:03:42.053Z,86.38
2017-06-02T00:04:54.381Z,87.34
2017-06-02T00:06:06.710Z,86.57
2017-06-02T00:07:19.282Z,86.57
2017-06-02T00:08:32.226Z,86.66
2017-06-02T00:09:45.208Z,86.28
2017-06-02T00:10:58.197Z,86.91
2017-06-02T00:12:11.069Z,86.33
2017-06-02T00:13:23.493Z,86.52
2017-06-02T00:14:36.433Z,86.52
2017-06-02T00:15:49.313Z,87.01
2017-06-02T00:17:02.180Z,87.19
2017-06-02T00:18:15.055Z,87.1
2017-06-02T00:19:27.436Z,87.01
2017-06-02T00:20:40.310Z,87.01
2017-06-02T00:21:53.191Z,87.87
2017-06-02T00:23:06.058Z,87.77
2017-06-02T00:24:19.124Z,87.58
2017-06-02T00:25:31.996Z,87.58
2017-06-02T00:26:44.386Z,87.68
2017-06-02T00:27:57.254Z,87.96
2017-06-02T00:29:09.632Z,88.21
2017-06-02T00:30:22.013Z,87.73
2017-06-02T00:31:34.395Z,87.92
2017-06-02T00:32:47.263Z,87.58
2017-06-02T00:34:00.129Z,86.72
2017-06-02T00:35:12.516Z,88.06
2017-06-02T00:36:25.385Z,88.16
2017-06-02T00:37:37.280Z,87.96
2017-06-02T00:38:50.145Z,87.87
2017-06-02T00:40:03.204Z,88.02
2017-06-02T00:41:15.096Z,87.96
2017-06-02T00:42:27.474Z,88.06
2017-06-02T00:43:40.332Z,89.07
2017-06-02T00:44:53.250Z,88.98
2017-06-02T00:46:06.314Z,88.79
2017-06-02T00:47:19.186Z,88.69
2017-06-02T00:48:31.570Z,88.69
2017-06-02T00:49:43.944Z,88.98
2017-06-02T00:50:56.328Z,88.69
2017-06-02T00:52:08.714Z,89.26
2017-06-02T00:53:21.588Z,88.79
2017-06-02T00:54:33.962Z,88.69
2017-06-02T00:55:46.823Z,89.07
2017-06-02T00:56:59.694Z,89.07
2017-06-02T00:58:12.072Z,89.75
2017-06-02T00:59:23.964Z,89.07
2017-06-02T01:00:36.829Z,89.65
2017-06-02T01:01:49.693Z,89.55
2017-06-02T01:03:02.078Z,89.46
2017-06-02T01:04:14.960Z,89.17
2017-06-02T01:05:27.335Z,88.98
2017-06-02T01:06:40.206Z,89.07
2017-06-02T01:07:53.278Z,88.98
2017-06-02T01:09:05.170Z,89.55
2017-06-02T01:10:18.046Z,90.52
2017-06-02T01:11:30.917Z,90.66
2017-06-02T01:12:43.992Z,90.47
2017-06-02T01:13:56.856Z,90.03
2017-06-02T01:15:09.233Z,90.08
2017-06-02T01:16:22.095Z,90.08
2017-06-02T01:17:33.994Z,89.94
2017-06-02T01:18:46.414Z,90.13
2017-06-02T01:19:59.410Z,90.42
2017-06-02T01:21:11.912Z,90.13
2017-06-02T01:22:24.411Z,90.47
2017-06-02T01:23:37.409Z,90.13
2017-06-02T01:24:50.410Z,90.22
2017-06-02T01:26:03.409Z,89.75
2017-06-02T01:27:14.898Z,89.55
2017-06-02T01:28:27.324Z,89.94
2017-06-02T01:29:40.237Z,89.46
2017-06-02T01:30:53.156Z,89.65
2017-06-02T01:32:05.585Z,90.42
2017-06-02T01:33:18.012Z,90.37
2017-06-02T01:34:30.634Z,90.52
2017-06-02T01:35:43.058Z,90.47
2017-06-02T01:36:55.483Z,91.14
2017-06-02T01:38:08.401Z,90.66
2017-06-02T01:39:21.318Z,90.75
2017-06-02T01:40:34.464Z,90.95
2017-06-02T01:41:47.378Z,91.62
2017-06-02T01:43:00.294Z,90.66
2017-06-02T01:44:13.209Z,90.95
2017-06-02T01:45:26.127Z,90.56
2017-06-02T01:46:38.561Z,90.85
2017-06-02T01:47:51.474Z,91.33
2017-06-02T01:49:04.399Z,90.85
2017-06-02T01:50:16.330Z,91.42
2017-06-02T01:51:29.249Z,90.08
2017-06-02T01:52:42.184Z,89.89
2017-06-02T01:53:54.611Z,89.51
2017-06-02T01:55:07.033Z,90.08
2017-06-02T01:56:19.465Z,89.79
2017-06-02T01:57:32.388Z,90.37
2017-06-02T01:58:45.306Z,90.23
2017-06-02T01:59:58.221Z,90.28
2017-06-02T02:01:10.159Z,90.37
2017-06-02T02:02:22.583Z,90.08
2017-06-02T02:03:35.497Z,90.18
2017-06-02T02:04:47.316Z,90.42
2017-06-02T02:06:00.105Z,90.14
2017-06-02T02:07:12.120Z,90.47
2017-06-02T02:08:23.943Z,90.23
2017-06-02T02:09:36.723Z,90.33
2017-06-02T02:10:49.511Z,90.28
2017-06-02T02:12:02.291Z,89.85
2017-06-02T02:13:14.589Z,90.23
2017-06-02T02:14:26.895Z,90.04
2017-06-02T02:15:39.682Z,90.23
2017-06-02T02:16:52.469Z,90.52
2017-06-02T02:18:04.764Z,90.04
2017-06-02T02:19:16.576Z,89.85
2017-06-02T02:20:28.882Z,88.89
2017-06-02T02:21:41.664Z,88.41
2017-06-02T02:22:53.483Z,88.98
2017-06-02T02:24:06.274Z,88.51
2017-06-02T02:25:18.573Z,88.79
2017-06-02T02:26:31.358Z,88.22
2017-06-02T02:27:43.653Z,88.6
2017-06-02T02:28:56.437Z,88.65
2017-06-02T02:30:08.755Z,88.46
2017-06-02T02:31:21.581Z,88.27
2017-06-02T02:32:33.879Z,87.98
2017-06-02T02:33:45.705Z,87.88
2017-06-02T02:34:58.704Z,88.37
2017-06-02T02:36:11.010Z,87.31
2017-06-02T02:37:23.315Z,86.35
2017-06-02T02:38:36.101Z,86.25
2017-06-02T02:39:48.899Z,85.58
2017-06-02T02:41:01.409Z,86.25
2017-06-02T02:42:13.716Z,86.54
2017-06-02T02:43:25.532Z,85.83
2017-06-02T02:44:38.314Z,85.88
2017-06-02T02:45:51.302Z,85.11
2017-06-02T02:47:03.597Z,84.63
2017-06-02T02:48:16.381Z,84.49
2017-06-02T02:49:29.199Z,83.67
2017-06-02T02:50:42.099Z,83.67
2017-06-02T02:51:54.705Z,83.82
2017-06-02T02:53:07.607Z,84.01
2017-06-02T02:54:20.014Z,83.15
2017-06-02T02:55:32.418Z,83.34
2017-06-02T02:56:45.314Z,82.67
2017-06-02T02:57:57.716Z,82.48
2017-06-02T02:59:10.116Z,82.29
2017-06-02T03:00:22.025Z,82.29
2017-06-02T03:01:34.429Z,82.19
2017-06-02T03:02:47.528Z,82.09
2017-06-02T03:03:59.935Z,81.81
2017-06-02T03:05:11.853Z,81.9
2017-06-02T03:06:23.767Z,81.9
2017-06-02T03:07:36.867Z,81.43
2017-06-02T03:08:49.757Z,81.62
2017-06-02T03:10:01.675Z,81.52
2017-06-02T03:11:13.596Z,81.23
2017-06-02T03:12:26.498Z,81.71
2017-06-02T03:13:39.395Z,81.52
2017-06-02T03:14:51.820Z,81.62
2017-06-02T03:16:04.801Z,81.62
2017-06-02T03:17:17.291Z,81.71
2017-06-02T03:18:30.472Z,81.52
2017-06-02T03:19:43.448Z,80.94
2017-06-02T03:20:55.929Z,81.23
2017-06-02T03:22:08.907Z,81.33
2017-06-02T03:23:21.395Z,80.94
2017-06-02T03:24:34.080Z,81.71
2017-06-02T03:25:46.069Z,81.52
2017-06-02T03:26:58.550Z,81.9
2017-06-02T03:28:11.527Z,82
2017-06-02T03:29:24.209Z,81.62
2017-06-02T03:30:37.190Z,82
2017-06-02T03:31:50.176Z,81.9
2017-06-02T03:33:03.154Z,81.23
2017-06-02T03:34:16.090Z,81.62
2017-06-02T03:35:27.971Z,81.62
2017-06-02T03:36:40.833Z,81.62
2017-06-02T03:37:53.693Z,82
2017-06-02T03:39:06.548Z,82
2017-06-02T03:40:19.117Z,82.43
2017-06-02T03:41:31.977Z,81.9
2017-06-02T03:42:44.384Z,82.48
2017-06-02T03:43:56.769Z,82.38
2017-06-02T03:45:09.136Z,82.57
2017-06-02T03:46:22.193Z,82.63
2017-06-02T03:47:35.050Z,82.34
2017-06-02T03:48:47.418Z,82.76
2017-06-02T03:50:00.276Z,82.67
2017-06-02T03:51:12.360Z,82.34
2017-06-02T03:52:24.727Z,81.96
2017-06-02T03:53:37.101Z,82.43
2017-06-02T03:54:49.958Z,82.24
2017-06-02T03:56:02.323Z,82.06
2017-06-02T03:57:15.378Z,81.48
2017-06-02T03:58:27.259Z,81.57
2017-06-02T03:59:40.116Z,81.67
2017-06-02T04:00:52.994Z,81.48
2017-06-02T04:02:05.366Z,81.96
2017-06-02T04:03:17.736Z,81.96
2017-06-02T04:04:30.596Z,82.24
2017-06-02T04:05:43.454Z,82.43
2017-06-02T04:06:55.823Z,81.77
2017-06-02T04:08:07.906Z,81.38
2017-06-02T04:09:20.762Z,81.48
2017-06-02T04:10:33.618Z,81.77
2017-06-02T04:11:45.984Z,82.15
2017-06-02T04:12:58.841Z,81.96
2017-06-02T04:14:11.219Z,81.96
2017-06-02T04:15:23.602Z,81.86
2017-06-02T04:16:36.458Z,81.57
2017-06-02T04:17:49.319Z,81.57
2017-06-02T04:19:02.377Z,82.24
2017-06-02T04:20:14.745Z,82.06
2017-06-02T04:21:27.114Z,81.86
2017-06-02T04:22:39.487Z,82.15
2017-06-02T04:23:51.572Z,82.63
2017-06-02T04:25:03.451Z,82.63
2017-06-02T04:26:15.820Z,82.43
2017-06-02T04:27:27.707Z,82.43
2017-06-02T04:28:40.077Z,82.53
2017-06-02T04:29:52.155Z,82.53
2017-06-02T04:31:05.009Z,81.96
2017-06-02T04:32:17.381Z,82.63
2017-06-02T04:33:30.238Z,82.43
2017-06-02T04:34:42.617Z,82.43
2017-06-02T04:35:55.674Z,82.3
2017-06-02T04:37:07.554Z,82.59
2017-06-02T04:38:19.923Z,82.3
2017-06-02T04:39:32.848Z,83.16
2017-06-02T04:40:45.733Z,82.97
2017-06-02T04:41:58.104Z,83.16
2017-06-02T04:43:10.957Z,82.59
2017-06-02T04:44:23.816Z,82.97
2017-06-02T04:45:36.682Z,82.97
2017-06-02T04:46:49.739Z,82.68
2017-06-02T04:48:02.107Z,83.45
2017-06-02T04:49:13.500Z,83.73
2017-06-02T04:50:24.894Z,83.54
2017-06-02T04:51:37.475Z,83.54
2017-06-02T04:52:50.332Z,83.83
2017-06-02T04:54:02.211Z,83.73
2017-06-02T04:55:15.069Z,83.93
2017-06-02T04:56:27.929Z,84.5
2017-06-02T04:57:40.988Z,84.31
2017-06-02T04:58:53.366Z,84.41
2017-06-02T05:00:05.246Z,83.83
2017-06-02T05:01:17.620Z,84.12
2017-06-02T05:02:30.684Z,84.22
2017-06-02T05:03:43.127Z,84.59
2017-06-02T05:04:56.181Z,84.5
2017-06-02T05:06:08.740Z,83.73
2017-06-02T05:07:21.796Z,84.31
2017-06-02T05:08:34.546Z,84.12
2017-06-02T05:09:47.095Z,84.59
2017-06-02T05:10:59.652Z,83.83
2017-06-02T05:12:11.701Z,84.02
2017-06-02T05:13:24.455Z,83.64
2017-06-02T05:14:37.013Z,83.64
2017-06-02T05:15:50.066Z,83.2
2017-06-02T05:17:02.617Z,83.68
2017-06-02T05:18:14.172Z,83.45
2017-06-02T05:19:27.430Z,83.45
2017-06-02T05:20:39.486Z,83.39
2017-06-02T05:21:52.541Z,83.3
2017-06-02T05:23:05.600Z,83.49
2017-06-02T05:24:18.162Z,83.2
2017-06-02T05:25:31.221Z,83.45
2017-06-02T05:26:44.272Z,83.64
2017-06-02T05:27:57.325Z,84.12
2017-06-02T05:29:09.882Z,84.22
2017-06-02T05:30:22.138Z,84.31
2017-06-02T05:31:34.694Z,83.83
2017-06-02T05:32:47.247Z,84.22
2017-06-02T05:34:00.303Z,84.5
2017-06-02T05:35:13.057Z,84.69
2017-06-02T05:36:26.124Z,85.46
2017-06-02T05:37:39.182Z,86.32
2017-06-02T05:38:51.697Z,85.94
2017-06-02T05:40:04.121Z,85.75
2017-06-02T05:41:16.050Z,85.55
2017-06-02T05:42:28.966Z,85.46
2017-06-02T05:43:41.884Z,85.65
2017-06-02T05:44:54.307Z,85.75
2017-06-02T05:46:06.933Z,85.17
2017-06-02T05:47:18.864Z,85.75
2017-06-02T05:48:31.289Z,86.13
2017-06-02T05:49:44.182Z,86.22
2017-06-02T05:50:57.080Z,86.13
2017-06-02T05:52:09.683Z,86.13
2017-06-02T05:53:22.575Z,86.04
2017-06-02T05:54:34.979Z,86.22
2017-06-02T05:55:47.869Z,86.66
2017-06-02T05:57:00.272Z,86.37
2017-06-02T05:58:12.677Z,86.76
2017-06-02T05:59:25.568Z,87.04
2017-06-02T06:00:37.973Z,87.04
2017-06-02T06:01:50.863Z,87.14
2017-06-02T06:03:02.491Z,86.76
2017-06-02T06:04:14.892Z,87.04
2017-06-02T06:05:27.303Z,86.76
2017-06-02T06:06:40.194Z,86.66
2017-06-02T06:07:53.088Z,86.8
2017-06-02T06:09:05.492Z,87.04
2017-06-02T06:10:18.390Z,86.47
2017-06-02T06:11:31.284Z,86.76
2017-06-02T06:12:44.176Z,86.76
2017-06-02T06:13:57.270Z,87.52
2017-06-02T06:15:09.701Z,88.19
2017-06-02T06:16:22.105Z,88.38
2017-06-02T06:17:34.511Z,88.19
2017-06-02T06:18:47.405Z,88.09
2017-06-02T06:20:13.855Z,88.76
2017-06-02T06:21:26.745Z,88.57
2017-06-02T06:22:39.639Z,88.48
2017-06-02T06:23:52.549Z,88.48
2017-06-02T06:25:04.953Z,88.95
2017-06-02T06:26:17.846Z,88.76
2017-06-02T06:27:30.740Z,89.1
2017-06-02T06:28:43.650Z,88.76
2017-06-02T06:29:56.251Z,88.57
2017-06-02T06:31:08.177Z,88.57
2017-06-02T06:32:21.075Z,88.34
2017-06-02T06:33:33.967Z,88.53
2017-06-02T06:34:46.386Z,88.91
2017-06-02T06:35:58.807Z,88.72
2017-06-02T06:37:11.726Z,89.1
2017-06-02T06:38:24.157Z,88.72
2017-06-02T06:39:36.580Z,89.29
2017-06-02T06:40:49.510Z,88.72
2017-06-02T06:42:02.421Z,89.1
2017-06-02T06:43:14.843Z,89.01
2017-06-02T06:44:27.772Z,88.53
2017-06-02T06:45:39.700Z,88.53
2017-06-02T06:46:52.118Z,88.62
2017-06-02T06:48:05.029Z,89.01
2017-06-02T06:49:17.962Z,88.81
2017-06-02T06:50:30.874Z,88.91
2017-06-02T06:51:43.497Z,89.67
2017-06-02T06:52:56.406Z,89.77
2017-06-02T06:54:09.318Z,89.96
2017-06-02T06:55:21.738Z,89.77
2017-06-02T06:56:34.157Z,89.67
2017-06-02T06:57:46.782Z,90.16
2017-06-02T06:58:59.694Z,89.96
2017-06-02T07:00:12.606Z,89.77
2017-06-02T07:01:25.519Z,89.87
2017-06-02T07:02:38.638Z,89.96
2017-06-02T07:03:51.548Z,89.2
2017-06-02T07:05:04.478Z,89.77
2017-06-02T07:06:17.399Z,89.67
2017-06-02T07:07:30.310Z,89.67
2017-06-02T07:08:42.931Z,89.29
2017-06-02T07:09:55.839Z,89.39
2017-06-02T07:11:08.760Z,89.01
2017-06-02T07:12:21.678Z,89.67
2017-06-02T07:13:34.303Z,89.87
2017-06-02T07:14:47.212Z,89.87
2017-06-02T07:16:00.123Z,89.96
2017-06-02T07:17:11.067Z,89.67
2017-06-02T07:18:23.980Z,90.34
2017-06-02T07:19:37.084Z,89.77
2017-06-02T07:20:49.989Z,90.06
2017-06-02T07:22:02.888Z,89.87
2017-06-02T07:23:15.778Z,90.06
2017-06-02T07:24:28.381Z,89.96
2017-06-02T07:25:40.786Z,89.96
2017-06-02T07:26:53.697Z,89.77
2017-06-02T07:28:05.618Z,89.87
2017-06-02T07:29:17.536Z,89.58
2017-06-02T07:30:30.638Z,89.1
2017-06-02T07:31:43.531Z,89.01
2017-06-02T07:32:56.420Z,89.39
2017-06-02T07:34:09.311Z,89.39
2017-06-02T07:35:21.426Z,89.2
2017-06-02T07:36:33.830Z,89.01
2017-06-02T07:37:46.718Z,89.39
2017-06-02T07:38:59.611Z,89.39
2017-06-02T07:40:12.024Z,90.34
2017-06-02T07:41:24.927Z,89.77
2017-06-02T07:42:37.327Z,89.58
2017-06-02T07:43:50.218Z,89.77
2017-06-02T07:45:03.112Z,89.2
2017-06-02T07:46:15.023Z,89.96
2017-06-02T07:47:27.427Z,90.06
2017-06-02T07:48:40.329Z,89.39
2017-06-02T07:49:53.218Z,89.58
2017-06-02T07:51:05.623Z,89.2
2017-06-02T07:52:17.548Z,89.1
2017-06-02T07:53:29.466Z,89.01
2017-06-02T07:54:41.868Z,89.2
2017-06-02T07:55:54.273Z,89.39
2017-06-02T07:57:07.165Z,89.67
2017-06-02T07:58:20.059Z,89.29
2017-06-02T07:59:32.464Z,88.72
2017-06-02T08:00:44.872Z,88.91
2017-06-02T08:01:57.761Z,88.43
2017-06-02T08:03:09.877Z,88.72
2017-06-02T08:04:21.859Z,88.53
2017-06-02T08:05:34.750Z,88.81
2017-06-02T08:06:47.645Z,88.43
2017-06-02T08:08:00.742Z,88.43
2017-06-02T08:09:13.142Z,89.2
2017-06-02T08:10:25.545Z,89.2
2017-06-02T08:11:38.439Z,89.29
2017-06-02T08:12:51.335Z,89.2
2017-06-02T08:14:03.940Z,89.2
2017-06-02T08:15:16.345Z,88.72
2017-06-02T08:16:28.743Z,89.29
2017-06-02T08:17:41.641Z,88.91
2017-06-02T08:18:54.736Z,89.2
2017-06-02T08:20:07.625Z,88.72
2017-06-02T08:21:20.029Z,88.53
2017-06-02T08:22:32.432Z,88.91
2017-06-02T08:23:44.844Z,88.72
2017-06-02T08:24:57.947Z,88.81
2017-06-02T08:26:10.350Z,89.01
2017-06-02T08:27:23.244Z,89.39
2017-06-02T08:28:36.140Z,89.1
2017-06-02T08:29:49.228Z,88.72
2017-06-02T08:31:02.120Z,89.1
2017-06-02T08:32:14.034Z,89.2
2017-06-02T08:33:26.925Z,88.72
2017-06-02T08:34:39.329Z,89.39
2017-06-02T08:35:52.221Z,89.2
2017-06-02T08:37:04.628Z,89.2
2017-06-02T08:38:17.031Z,89.1
2017-06-02T08:39:29.921Z,89.01
2017-06-02T08:40:43.016Z,89.87
2017-06-02T08:41:55.916Z,89.77
2017-06-02T08:43:08.803Z,89.67
2017-06-02T08:44:21.700Z,89.58
2017-06-02T08:45:34.593Z,89.67
2017-06-02T08:46:46.993Z,89.67
2017-06-02T08:47:58.909Z,89.58
2017-06-02T08:49:10.828Z,90.39
2017-06-02T08:50:23.740Z,90.59
2017-06-02T08:51:36.853Z,90.3
2017-06-02T08:52:49.272Z,90.59
2017-06-02T08:54:02.190Z,89.96
2017-06-02T08:55:15.111Z,90.16
2017-06-02T08:56:27.530Z,89.77
2017-06-02T08:57:40.647Z,89.87
2017-06-02T08:58:53.557Z,89.87
2017-06-02T09:00:06.469Z,89.77
2017-06-02T09:01:18.401Z,90.16
2017-06-02T09:02:31.512Z,89.29
2017-06-02T09:03:44.426Z,89.2
2017-06-02T09:04:57.335Z,89.15
2017-06-02T09:06:09.754Z,89.2
2017-06-02T09:07:22.666Z,89.58
2017-06-02T09:08:35.789Z,89.29
2017-06-02T09:09:48.209Z,89.73
2017-06-02T09:11:00.142Z,89.53
2017-06-02T09:12:12.566Z,89.48
2017-06-02T09:13:24.986Z,89.2
2017-06-02T09:14:37.409Z,89.1
2017-06-02T09:15:49.344Z,89.48
2017-06-02T09:17:02.254Z,89.58
2017-06-02T09:18:14.740Z,89.77
2017-06-02T09:19:26.878Z,90.68
2017-06-02T09:20:39.789Z,90.44
2017-06-02T09:21:52.212Z,89.96
2017-06-02T09:23:04.639Z,89.96
2017-06-02T09:24:16.570Z,90.06
2017-06-02T09:25:28.987Z,90.16
2017-06-02T09:26:41.409Z,89.87
2017-06-02T09:27:54.318Z,89.06
2017-06-02T09:29:06.740Z,89.53
2017-06-02T09:30:19.159Z,89.82
2017-06-02T09:31:31.578Z,89.92
2017-06-02T09:32:44.492Z,90.44
2017-06-02T09:33:56.423Z,91.06
2017-06-02T09:35:08.843Z,91.16
2017-06-02T09:36:21.266Z,91.54
2017-06-02T09:37:33.704Z,91.06
2017-06-02T09:38:46.160Z,90.78
2017-06-02T09:39:58.595Z,91.06
2017-06-02T09:41:11.706Z,91.16
2017-06-02T09:42:24.126Z,91.35
2017-06-02T09:43:36.545Z,91.06
2017-06-02T09:44:49.454Z,91.35
2017-06-02T09:46:02.591Z,91.54
2017-06-02T09:47:13.537Z,91.64
2017-06-02T09:48:25.956Z,91.93
2017-06-02T09:49:38.869Z,91.54
2017-06-02T09:50:51.288Z,90.97
2017-06-02T09:52:04.201Z,92.02
2017-06-02T09:53:16.126Z,92.3
2017-06-02T09:54:29.035Z,92.26
2017-06-02T09:55:41.949Z,92.55
2017-06-02T09:56:54.867Z,92.55
2017-06-02T09:58:07.777Z,92.16
2017-06-02T09:59:20.198Z,91.88
2017-06-02T10:00:33.116Z,91.74
2017-06-02T10:01:46.024Z,91.93
2017-06-02T10:02:58.938Z,91.64
2017-06-02T10:04:10.433Z,91.64
2017-06-02T10:05:22.850Z,91.93
2017-06-02T10:06:35.760Z,91.64
2017-06-02T10:07:48.184Z,91.69
2017-06-02T10:09:00.806Z,91.5
2017-06-02T10:10:13.717Z,91.74
2017-06-02T10:11:26.141Z,91.25
2017-06-02T10:12:39.053Z,91.88
2017-06-02T10:13:51.472Z,91.5
2017-06-02T10:15:04.385Z,91.45
2017-06-02T10:16:17.298Z,91.54
2017-06-02T10:17:29.225Z,91.54
2017-06-02T10:18:42.092Z,91.64
2017-06-02T10:19:54.869Z,91.54
2017-06-02T10:21:07.638Z,91.35
2017-06-02T10:22:20.413Z,92.21
2017-06-02T10:23:32.712Z,92.16
2017-06-02T10:24:45.510Z,92.02
2017-06-02T10:25:58.321Z,92.26
2017-06-02T10:27:11.241Z,92.93
2017-06-02T10:28:24.156Z,92.83
2017-06-02T10:29:37.071Z,92.83
2017-06-02T10:30:50.199Z,92.83
2017-06-02T10:32:03.112Z,92.16
2017-06-02T10:33:15.535Z,91.88
2017-06-02T10:34:28.456Z,91.88
2017-06-02T10:35:41.367Z,91.74
2017-06-02T10:36:53.300Z,91.54
2017-06-02T10:38:06.216Z,91.83
2017-06-02T10:39:19.135Z,91.93
2017-06-02T10:40:32.050Z,91.3
2017-06-02T10:41:44.672Z,91.4
2017-06-02T10:42:57.099Z,91.64
2017-06-02T10:44:10.013Z,92.11
2017-06-02T10:45:22.926Z,91.74
2017-06-02T10:46:35.548Z,91.74
2017-06-02T10:47:48.526Z,90.59
2017-06-02T10:49:01.454Z,89.82
2017-06-02T10:50:13.885Z,89.53
2017-06-02T10:51:26.310Z,89.92
2017-06-02T10:52:53.270Z,88.2
2017-06-02T10:54:05.694Z,89.06
2017-06-02T10:55:18.614Z,88.48
2017-06-02T10:56:31.036Z,88.48
2017-06-02T10:57:43.660Z,88.87
2017-06-02T10:58:56.575Z,88.39
2017-06-02T11:00:07.524Z,88.15
2017-06-02T11:01:19.464Z,87.86
2017-06-02T11:02:32.380Z,87.86
2017-06-02T11:03:45.294Z,87.19
2017-06-02T11:04:58.222Z,86.43
2017-06-02T11:06:10.154Z,86.71
2017-06-02T11:07:22.584Z,86.23
2017-06-02T11:08:35.010Z,86.14
2017-06-02T11:09:47.923Z,85.85
2017-06-02T11:11:00.852Z,85.94
2017-06-02T11:12:13.766Z,85.66
2017-06-02T11:13:26.190Z,85.66
2017-06-02T11:14:38.618Z,85.85
2017-06-02T11:15:51.555Z,85.28
2017-06-02T11:17:04.473Z,85.38
2017-06-02T11:18:17.208Z,85.18
2017-06-02T11:19:30.121Z,85.22
2017-06-02T11:20:42.549Z,85.18
2017-06-02T11:21:55.466Z,84.89
2017-06-02T11:23:08.377Z,84.55
2017-06-02T11:24:20.515Z,84.55
2017-06-02T11:25:32.447Z,84.27
2017-06-02T11:26:45.362Z,84.55
2017-06-02T11:27:58.279Z,84.27
2017-06-02T11:29:10.704Z,84.46
2017-06-02T11:30:37.664Z,84.36
2017-06-02T11:31:50.580Z,83.31
2017-06-02T11:33:03.494Z,83.12
2017-06-02T11:34:16.410Z,82.59
2017-06-02T11:35:29.033Z,81.15
2017-06-02T11:36:41.919Z,80.77
2017-06-02T11:37:54.692Z,80.58
2017-06-02T11:39:07.466Z,79.75
2017-06-02T11:40:20.163Z,79.37
2017-06-02T11:41:32.943Z,78.93
2017-06-02T11:42:45.720Z,78.45
2017-06-02T11:43:58.498Z,77.69
2017-06-02T11:45:11.272Z,77.97
2017-06-02T11:46:24.052Z,78.45
2017-06-02T11:47:36.346Z,77.25
2017-06-02T11:48:48.638Z,77.15
2017-06-02T11:50:01.416Z,76.57
2017-06-02T11:51:13.232Z,76.04
2017-06-02T11:52:25.531Z,76.71
2017-06-02T11:53:38.310Z,75.75
2017-06-02T11:54:51.090Z,74.51
2017-06-02T11:56:03.386Z,74.51
2017-06-02T11:57:15.682Z,75.08
2017-06-02T11:58:28.461Z,74.79
2017-06-02T11:59:41.239Z,74.51
2017-06-02T12:00:53.541Z,75.27
2017-06-02T12:02:06.315Z,75.37
2017-06-02T12:03:18.676Z,74.51
2017-06-02T12:04:31.451Z,74.89
2017-06-02T12:05:44.629Z,74.51
2017-06-02T12:06:57.472Z,73.97
2017-06-02T12:08:10.248Z,73
2017-06-02T12:09:23.024Z,73.39
2017-06-02T12:10:35.327Z,72.63
2017-06-02T12:12:02.178Z,73.1
2017-06-02T12:13:14.470Z,72.81
2017-06-02T12:14:26.767Z,73.39
2017-06-02T12:15:39.546Z,72.24
2017-06-02T12:16:52.522Z,73.43
2017-06-02T12:18:05.306Z,72.37
2017-06-02T12:19:17.602Z,72.28
2017-06-02T12:20:30.377Z,71.7
2017-06-02T12:21:43.159Z,70.68
2017-06-02T12:22:55.957Z,70.87
2017-06-02T12:24:07.772Z,69.43
2017-06-02T12:25:20.068Z,70.49
2017-06-02T12:26:32.365Z,71.25
2017-06-02T12:27:45.142Z,70.93
2017-06-02T12:28:57.920Z,71.61
2017-06-02T12:30:10.697Z,71.61
2017-06-02T12:31:23.477Z,71.31
2017-06-02T12:32:50.328Z,71.06
2017-06-02T12:34:03.308Z,70.87
2017-06-02T12:35:15.666Z,70.78
2017-06-02T12:36:28.449Z,71.25
2017-06-02T12:37:41.231Z,71.25
2017-06-02T12:38:54.011Z,70.29
2017-06-02T12:40:06.309Z,70.29
2017-06-02T12:41:18.660Z,69.43
2017-06-02T12:42:31.457Z,69.27
2017-06-02T12:43:44.438Z,68.7
2017-06-02T12:44:56.737Z,69.75
2017-06-02T12:46:09.524Z,69.75
2017-06-02T12:47:22.298Z,69.75
2017-06-02T12:48:34.589Z,68.98
2017-06-02T12:49:47.552Z,69.27
2017-06-02T12:51:00.470Z,68.89
2017-06-02T12:52:13.386Z,69.21
2017-06-02T12:53:26.302Z,69.18
2017-06-02T12:54:38.726Z,68.89
2017-06-02T12:55:51.647Z,68.6
2017-06-02T12:57:04.563Z,68.63
2017-06-02T12:58:16.988Z,68.79
2017-06-02T12:59:29.413Z,68.7
2017-06-02T13:00:42.326Z,68.44
2017-06-02T13:01:54.769Z,68.92
2017-06-02T13:03:07.199Z,68.83
2017-06-02T13:04:19.629Z,68.44
2017-06-02T13:05:32.748Z,68.54
2017-06-02T13:06:45.668Z,68.89
2017-06-02T13:07:58.591Z,68.35
2017-06-02T13:09:11.509Z,68.6
2017-06-02T13:10:24.137Z,69.08
2017-06-02T13:11:36.072Z,69.37
2017-06-02T13:12:48.497Z,69.56
2017-06-02T13:14:00.432Z,69.85
2017-06-02T13:15:12.857Z,69.75
2017-06-02T13:16:25.974Z,69.75
2017-06-02T13:17:38.400Z,70.78
2017-06-02T13:18:51.355Z,70.49
2017-06-02T13:20:03.894Z,71.25
2017-06-02T13:21:16.941Z,70.87
2017-06-02T13:22:28.997Z,70.97
2017-06-02T13:23:42.031Z,70.97
2017-06-02T13:24:55.067Z,71.06
2017-06-02T13:26:07.574Z,70.87
2017-06-02T13:27:20.669Z,70.68
2017-06-02T13:28:33.079Z,71.35
2017-06-02T13:29:45.970Z,71.06
2017-06-02T13:30:58.382Z,71.16
2017-06-02T13:32:10.301Z,71.55
2017-06-02T13:33:21.728Z,70.68
2017-06-02T13:34:34.621Z,70.29
2017-06-02T13:35:47.518Z,70.29
2017-06-02T13:37:00.419Z,70.68
2017-06-02T13:38:13.658Z,71.73
2017-06-02T13:39:26.060Z,71.83
2017-06-02T13:40:38.961Z,70.87
2017-06-02T13:41:51.361Z,70.97
2017-06-02T13:43:03.770Z,70.29
2017-06-02T13:44:16.175Z,69.95
2017-06-02T13:45:28.584Z,69.53
2017-06-02T13:46:41.477Z,69.18
2017-06-02T13:47:54.373Z,68.98
2017-06-02T13:49:06.775Z,68.89
2017-06-02T13:50:19.664Z,68.79
2017-06-02T13:51:32.565Z,69.27
2017-06-02T13:52:45.466Z,68.7
2017-06-02T13:53:58.358Z,67.54
2017-06-02T13:55:10.957Z,66.77
2017-06-02T13:56:23.851Z,66.87
2017-06-02T13:57:36.258Z,67.74
2017-06-02T13:58:49.154Z,66.91
2017-06-02T14:00:02.257Z,67.1
2017-06-02T14:01:14.182Z,66.42
2017-06-02T14:02:27.077Z,65.94
2017-06-02T14:03:39.935Z,65.66
2017-06-02T14:04:52.244Z,65.01
2017-06-02T14:06:05.027Z,65.3
2017-06-02T14:07:17.327Z,65.11
2017-06-02T14:08:30.103Z,64.73
2017-06-02T14:09:42.403Z,64.73
2017-06-02T14:10:55.192Z,64.63
2017-06-02T14:12:07.971Z,64.18
2017-06-02T14:13:20.748Z,64.18
2017-06-02T14:14:32.564Z,64.08
2017-06-02T14:15:44.860Z,64.37
2017-06-02T14:16:57.637Z,64.37
2017-06-02T14:18:10.425Z,63.89
2017-06-02T14:19:23.207Z,63.79
2017-06-02T14:20:35.509Z,64.37
2017-06-02T14:21:47.813Z,65.24
2017-06-02T14:23:00.108Z,63.89
2017-06-02T14:24:12.885Z,63.99
2017-06-02T14:25:25.664Z,62.06
2017-06-02T14:26:38.792Z,62.64
2017-06-02T14:27:51.090Z,62.64
2017-06-02T14:29:03.386Z,62.83
2017-06-02T14:30:15.886Z,62.54
2017-06-02T14:31:28.184Z,62.26
2017-06-02T14:32:40.965Z,62.35
2017-06-02T14:34:07.819Z,62.35
2017-06-02T14:35:19.635Z,61.58
2017-06-02T14:36:31.932Z,61.42
2017-06-02T14:37:44.712Z,61.04
2017-06-02T14:38:57.014Z,61.13
2017-06-02T14:40:09.308Z,61.8
2017-06-02T14:41:21.126Z,61.71
2017-06-02T14:42:33.910Z,61.9
2017-06-02T14:43:46.685Z,62.48
2017-06-02T14:44:59.462Z,63.12
2017-06-02T14:46:11.761Z,63.02
2017-06-02T14:47:24.541Z,63.41
2017-06-02T14:48:37.356Z,63.41
2017-06-02T14:49:50.250Z,63.09
2017-06-02T14:51:02.854Z,63.02
2017-06-02T14:52:15.753Z,63.51
2017-06-02T14:53:28.156Z,64.08
2017-06-02T14:54:41.058Z,63.76
2017-06-02T14:55:54.153Z,64.25
2017-06-02T14:57:07.250Z,63.76
2017-06-02T14:58:19.174Z,64.25
2017-06-02T14:59:31.586Z,62.9
2017-06-02T15:00:43.998Z,63.67
2017-06-02T15:01:57.094Z,63.57
2017-06-02T15:03:09.500Z,63.95
2017-06-02T15:04:21.420Z,64.43
2017-06-02T15:05:34.316Z,64.79
2017-06-02T15:06:46.235Z,65.01
2017-06-02T15:07:58.640Z,64.53
2017-06-02T15:09:11.262Z,64.69
2017-06-02T15:10:23.666Z,64.79
2017-06-02T15:11:36.562Z,65.37
2017-06-02T15:12:49.455Z,64.98
2017-06-02T15:14:02.062Z,64.98
2017-06-02T15:15:14.496Z,64.69
2017-06-02T15:16:27.391Z,64.98
2017-06-02T15:17:40.291Z,65.27
2017-06-02T15:18:52.694Z,65.27
2017-06-02T15:20:05.788Z,65.37
2017-06-02T15:21:18.200Z,65.46
2017-06-02T15:22:30.614Z,64.63
2017-06-02T15:23:43.510Z,64.53
2017-06-02T15:24:56.616Z,64.82
2017-06-02T15:26:09.024Z,64.82
2017-06-02T15:27:21.433Z,65.01
2017-06-02T15:28:33.840Z,65.11
2017-06-02T15:29:46.734Z,64.63
2017-06-02T15:30:59.632Z,64.92
2017-06-02T15:32:12.531Z,64.82
2017-06-02T15:33:25.391Z,65.11
2017-06-02T15:34:38.185Z,65.3
2017-06-02T15:35:50.488Z,65.5
2017-06-02T15:37:03.269Z,65.01
2017-06-02T15:38:15.088Z,65.01
2017-06-02T15:39:27.871Z,65.5